Time;durP1;ratioP1;P1;durP2;ratioP2;P2;SDS_P1;SDS_P2;PMS_P1;PMS_P2;Temp;Humidity;BMP_temperature;BMP_pressure;BME280_temperature;BME280_humidity;BME280_pressure;Samples;Min_cycle;Max_cycle;Signal;HPM_P1;HPM_P2
2021/10/23 00:01:25;;;;;;;;;;;;;;;13.41;75.85;101634.18;1810709;79;20148;-63
2021/10/23 00:03:53;;;;;;;;;;;;;;;13.39;75.52;101635.13;1810770;79;20157;-63
2021/10/23 00:06:21;;;;;;;;;;;;;;;13.36;75.27;101626.86;1812067;78;20121;-62
2021/10/23 00:08:49;;;;;;;;;;;;;;;13.35;75.11;101629.09;1819337;79;20152;-62
2021/10/23 00:11:16;;;;;;;;;;;;;;;13.35;75.11;101630.88;1819321;79;20121;-61
2021/10/23 00:13:44;;;;;;;;;;;;;;;13.38;75.29;101630.31;1819320;79;20125;-61
2021/10/23 00:16:12;;;;;;;;;;;;;;;13.40;75.00;101633.76;1819273;79;20169;-62
2021/10/23 00:18:40;;;;;;;;;;;;;;;13.41;74.80;101627.56;1819317;79;20113;-62
2021/10/23 00:21:08;;;;;;;;;;;;;;;13.40;74.57;101627.15;1819300;78;20152;-61
2021/10/23 00:23:35;;;;;;;;;;;;;;;13.34;74.42;101623.41;1819314;79;20125;-61
2021/10/23 00:26:03;;;;;;;;;;;;;;;13.27;74.31;101625.84;1819381;79;20152;-61
2021/10/23 00:28:31;;;;;;;;;;;;;;;13.18;74.27;101620.89;1819323;79;20158;-61
2021/10/23 00:30:59;;;;;;;;;;;;;;;13.11;74.19;101621.12;1819347;79;20196;-61
2021/10/23 00:33:27;;;;;;;;;;;;;;;13.07;74.12;101624.77;1818942;78;20156;-63
2021/10/23 00:35:55;;;;;;;;;;;;;;;12.99;73.99;101622.86;1818418;79;20204;-62
2021/10/23 00:38:23;;;;;;;;;;;;;;;12.93;74.09;101620.44;1813706;79;20133;-63
2021/10/23 00:40:51;;;;;;;;;;;;;;;12.90;74.01;101617.89;1813615;79;20152;-64
2021/10/23 00:43:19;;;;;;;;;;;;;;;12.88;74.02;101616.63;1813538;78;20118;-64
2021/10/23 00:45:47;;;;;;;;;;;;;;;12.87;74.41;101613.59;1814099;78;20223;-64
2021/10/23 00:48:15;;;;;;;;;;;;;;;12.88;74.20;101615.30;1819407;78;20117;-64
2021/10/23 00:50:44;;;;;;;;;;;;;;;12.81;73.85;101612.46;1818928;78;20152;-65
2021/10/23 00:53:13;;;;;;;;;;;;;;;12.74;73.66;101610.94;1813660;79;20177;-60
2021/10/23 00:55:42;;;;;;;;;;;;;;;12.67;73.66;101610.30;1813567;79;20384;-62
2021/10/23 00:58:10;;;;;;;;;;;;;;;12.59;73.67;101611.00;1813801;79;20415;-61
2021/10/23 01:00:37;;;;;;;;;;;;;;;12.65;75.98;101612.14;1813696;79;20156;-61
2021/10/23 01:03:06;;;;;;;;;;;;;;;12.63;75.30;101618.38;1813613;79;20117;-60
2021/10/23 01:05:34;;;;;;;;;;;;;;;12.66;75.06;101607.70;1813895;79;20141;-62
2021/10/23 01:08:02;;;;;;;;;;;;;;;12.65;74.73;101609.50;1814922;79;20122;-61
2021/10/23 01:10:29;;;;;;;;;;;;;;;12.64;74.55;101609.08;1815878;79;20121;-61
2021/10/23 01:12:58;;;;;;;;;;;;;;;12.56;74.32;101616.41;1815972;79;20113;-61
2021/10/23 01:15:27;;;;;;;;;;;;;;;12.48;74.13;101613.14;1815973;79;20113;-61
2021/10/23 01:17:57;;;;;;;;;;;;;;;12.40;73.95;101613.87;1816098;79;20384;-61
2021/10/23 01:20:26;;;;;;;;;;;;;;;12.31;73.86;101613.23;1815967;79;20152;-61
2021/10/23 01:22:54;;;;;;;;;;;;;;;12.24;73.77;101610.38;1815896;79;20132;-61
2021/10/23 01:25:23;;;;;;;;;;;;;;;12.16;73.74;101608.45;1815972;79;20169;-61
2021/10/23 01:27:52;;;;;;;;;;;;;;;12.07;73.67;101603.00;1816095;79;20367;-61
2021/10/23 01:30:22;;;;;;;;;;;;;;;12.00;73.98;101600.61;1815940;79;20125;-61
2021/10/23 01:32:50;;;;;;;;;;;;;;;12.01;74.72;101600.56;1815951;79;20403;-61
2021/10/23 01:35:18;;;;;;;;;;;;;;;12.21;75.43;101603.02;1815996;78;20137;-62
2021/10/23 01:37:47;;;;;;;;;;;;;;;12.40;76.48;101608.58;1815935;78;20156;-61
2021/10/23 01:40:16;;;;;;;;;;;;;;;12.54;76.53;101615.57;1815934;79;20171;-61
2021/10/23 01:42:45;;;;;;;;;;;;;;;12.65;77.66;101602.89;1815912;79;20149;-61
2021/10/23 01:45:13;;;;;;;;;;;;;;;12.76;78.36;101605.14;1815957;79;20172;-61
2021/10/23 01:47:41;;;;;;;;;;;;;;;12.83;77.61;101603.16;1815905;79;20151;-61
2021/10/23 01:50:14;;;;;;;;;;;;;;;12.87;77.22;101595.52;1815914;79;20212;-61
2021/10/23 01:52:41;;;;;;;;;;;;;;;12.88;77.02;101595.95;1815712;78;20121;-60
2021/10/23 01:55:10;;;;;;;;;;;;;;;12.89;77.32;101593.69;1815953;79;20113;-60
2021/10/23 01:57:39;;;;;;;;;;;;;;;12.89;77.26;101597.65;1815922;79;20148;-60
2021/10/23 02:00:08;;;;;;;;;;;;;;;12.89;77.51;101594.58;1815960;79;20122;-61
2021/10/23 02:02:38;;;;;;;;;;;;;;;12.91;78.17;101598.45;1815834;79;20105;-61
2021/10/23 02:05:07;;;;;;;;;;;;;;;12.91;78.40;101594.49;1815964;79;20156;-61
2021/10/23 02:07:35;;;;;;;;;;;;;;;12.91;79.52;101595.38;1815870;79;20263;-60
2021/10/23 02:10:04;;;;;;;;;;;;;;;12.94;80.02;101596.57;1815964;79;20196;-60
2021/10/23 02:12:31;;;;;;;;;;;;;;;13.00;79.66;101604.74;1815937;79;20129;-61
2021/10/23 02:14:59;;;;;;;;;;;;;;;13.07;79.74;101600.11;1815888;78;20125;-61
2021/10/23 02:17:27;;;;;;;;;;;;;;;13.14;79.79;101601.16;1815942;79;20126;-61
2021/10/23 02:19:55;;;;;;;;;;;;;;;13.19;79.60;101600.15;1816047;79;20113;-61
2021/10/23 02:22:23;;;;;;;;;;;;;;;13.22;79.37;101594.73;1815901;79;20184;-61
2021/10/23 02:24:51;;;;;;;;;;;;;;;13.24;79.04;101596.85;1815942;79;20113;-61
2021/10/23 02:27:18;;;;;;;;;;;;;;;13.22;78.81;101593.41;1815923;79;20121;-61
2021/10/23 02:29:46;;;;;;;;;;;;;;;13.19;78.74;101600.15;1815878;79;20152;-61
2021/10/23 02:32:14;;;;;;;;;;;;;;;13.17;78.38;101601.95;1815932;79;20144;-61
2021/10/23 02:34:42;;;;;;;;;;;;;;;13.12;78.23;101600.34;1815930;79;20126;-61
2021/10/23 02:37:09;;;;;;;;;;;;;;;13.09;77.83;101600.45;1815956;79;20121;-62
2021/10/23 02:39:37;;;;;;;;;;;;;;;13.01;77.65;101609.13;1815939;79;20113;-61
2021/10/23 02:42:06;;;;;;;;;;;;;;;12.87;77.33;101615.34;1815835;79;20113;-61
2021/10/23 02:44:33;;;;;;;;;;;;;;;12.70;77.18;101608.86;1815928;78;20117;-61
2021/10/23 02:47:02;;;;;;;;;;;;;;;12.53;77.02;101600.66;1815935;79;20149;-61
2021/10/23 02:49:30;;;;;;;;;;;;;;;12.36;76.87;101604.71;1815964;79;20129;-61
2021/10/23 02:51:57;;;;;;;;;;;;;;;12.18;76.75;101611.05;1815933;79;20148;-60
2021/10/23 02:54:25;;;;;;;;;;;;;;;12.01;76.74;101616.41;1815878;79;20125;-61
2021/10/23 02:56:53;;;;;;;;;;;;;;;11.89;76.69;101610.14;1815848;79;20168;-60
2021/10/23 02:59:21;;;;;;;;;;;;;;;11.77;76.65;101605.65;1815915;79;20130;-61
2021/10/23 03:01:49;;;;;;;;;;;;;;;11.66;76.63;101604.25;1815918;79;20152;-61
2021/10/23 03:04:17;;;;;;;;;;;;;;;11.55;76.59;101608.52;1815910;79;20121;-61
2021/10/23 03:06:44;;;;;;;;;;;;;;;11.47;76.54;101604.80;1815941;79;20109;-61
2021/10/23 03:09:13;;;;;;;;;;;;;;;11.43;76.53;101606.23;1820775;79;20164;-61
2021/10/23 03:11:42;;;;;;;;;;;;;;;11.36;76.52;101605.53;1824532;79;20371;-61
2021/10/23 03:14:10;;;;;;;;;;;;;;;11.28;76.51;101603.11;1824520;79;20125;-61
2021/10/23 03:16:37;;;;;;;;;;;;;;;11.24;76.43;101606.75;1824525;77;20121;-61
2021/10/23 03:19:05;;;;;;;;;;;;;;;11.18;76.38;101609.11;1824553;79;20121;-61
2021/10/23 03:21:33;;;;;;;;;;;;;;;11.16;76.31;101604.33;1824477;79;20211;-61
2021/10/23 03:24:01;;;;;;;;;;;;;;;11.13;76.30;101609.68;1824488;77;20188;-61
2021/10/23 03:26:29;;;;;;;;;;;;;;;11.14;76.23;101603.52;1824533;79;20113;-61
2021/10/23 03:28:57;;;;;;;;;;;;;;;11.11;76.17;101599.64;1824524;79;20125;-61
2021/10/23 03:31:25;;;;;;;;;;;;;;;11.09;76.07;101599.28;1824501;79;20124;-61
2021/10/23 03:33:53;;;;;;;;;;;;;;;11.05;75.98;101599.81;1824506;79;20129;-61
2021/10/23 03:39:09;;;;;;;;;;;;;;;10.97;75.89;101596.50;1824621;79;20152;-61
2021/10/23 03:41:37;;;;;;;;;;;;;;;10.95;75.84;101598.32;1824630;79;20136;-61
2021/10/23 03:44:06;;;;;;;;;;;;;;;10.91;75.73;101594.05;1824632;79;20156;-60
2021/10/23 03:46:34;;;;;;;;;;;;;;;10.90;75.65;101597.57;1824675;79;20469;-60
2021/10/23 03:49:02;;;;;;;;;;;;;;;10.89;75.59;101595.86;1824598;79;20215;-61
2021/10/23 03:51:30;;;;;;;;;;;;;;;10.90;75.61;101593.19;1824642;79;20175;-61
2021/10/23 03:53:58;;;;;;;;;;;;;;;10.93;75.65;101586.96;1824602;79;20133;-61
2021/10/23 03:56:25;;;;;;;;;;;;;;;10.93;75.63;101589.59;1824586;79;20141;-61
2021/10/23 03:58:54;;;;;;;;;;;;;;;10.93;75.59;101590.45;1824770;77;20187;-61
2021/10/23 04:01:21;;;;;;;;;;;;;;;10.97;75.76;101589.92;1824571;79;20136;-62
2021/10/23 04:03:49;;;;;;;;;;;;;;;11.04;75.73;101590.16;1824665;79;20152;-61
2021/10/23 04:06:17;;;;;;;;;;;;;;;11.10;75.82;101587.38;1824654;79;20173;-61
2021/10/23 04:08:45;;;;;;;;;;;;;;;11.15;75.76;101588.55;1824715;79;20148;-61
2021/10/23 04:11:13;;;;;;;;;;;;;;;11.18;75.54;101585.38;1824616;79;20203;-61
2021/10/23 04:13:40;;;;;;;;;;;;;;;11.22;75.62;101580.89;1824629;79;20148;-61
2021/10/23 04:16:08;;;;;;;;;;;;;;;11.28;75.44;101595.66;1824706;79;20524;-60
2021/10/23 04:18:36;;;;;;;;;;;;;;;11.28;75.20;101598.30;1824636;79;20152;-61
2021/10/23 04:21:04;;;;;;;;;;;;;;;11.27;75.02;101597.88;1824638;79;20153;-61
2021/10/23 04:23:32;;;;;;;;;;;;;;;11.29;74.99;101603.54;1824649;79;20160;-61
2021/10/23 04:26:00;;;;;;;;;;;;;;;11.32;75.08;101604.75;1824634;79;20148;-61
2021/10/23 04:28:28;;;;;;;;;;;;;;;11.41;75.28;101606.27;1824539;79;20144;-61
2021/10/23 04:30:55;;;;;;;;;;;;;;;11.51;75.29;101604.22;1824637;79;20176;-61
2021/10/23 04:33:23;;;;;;;;;;;;;;;11.59;75.29;101600.92;1824609;79;20187;-61
2021/10/23 04:35:51;;;;;;;;;;;;;;;11.66;75.14;101604.25;1824658;79;20148;-61
2021/10/23 04:38:19;;;;;;;;;;;;;;;11.72;75.11;101606.70;1843459;77;20155;-61
2021/10/23 04:40:47;;;;;;;;;;;;;;;11.79;75.20;101600.33;1860790;77;20124;-61
2021/10/23 04:43:15;;;;;;;;;;;;;;;11.90;75.08;101602.67;1860688;77;20108;-61
2021/10/23 04:45:43;;;;;;;;;;;;;;;12.03;75.21;101600.52;1860756;77;20175;-61
2021/10/23 04:48:10;;;;;;;;;;;;;;;12.14;75.11;101603.69;1860888;77;20379;-61
2021/10/23 04:50:38;;;;;;;;;;;;;;;12.21;74.80;101599.94;1860800;77;20147;-61
2021/10/23 04:53:06;;;;;;;;;;;;;;;12.29;74.57;101611.10;1860759;77;20143;-61
2021/10/23 04:55:34;;;;;;;;;;;;;;;12.39;74.51;101618.27;1860712;76;20121;-61
2021/10/23 04:58:02;;;;;;;;;;;;;;;12.49;74.27;101614.88;1860776;77;20120;-61
2021/10/23 05:00:30;;;;;;;;;;;;;;;12.62;74.16;101616.20;1860912;77;20108;-61
2021/10/23 05:02:58;;;;;;;;;;;;;;;12.75;73.94;101615.33;1860785;77;20117;-61
2021/10/23 05:05:25;;;;;;;;;;;;;;;12.90;73.71;101626.68;1860759;76;20121;-61
2021/10/23 05:07:53;;;;;;;;;;;;;;;13.08;73.34;101624.33;1860786;77;20171;-62
2021/10/23 05:10:21;;;;;;;;;;;;;;;13.25;73.15;101626.36;1860943;77;20151;-61
2021/10/23 05:12:49;;;;;;;;;;;;;;;13.44;72.94;101630.08;1860894;77;20117;-60
2021/10/23 05:15:16;;;;;;;;;;;;;;;13.74;72.63;101621.94;1860818;77;20119;-60
2021/10/23 05:17:45;;;;;;;;;;;;;;;14.16;72.27;101623.80;1860329;77;20191;-67
2021/10/23 05:20:13;;;;;;;;;;;;;;;14.75;72.04;101620.12;1860847;77;20195;-66
2021/10/23 05:22:41;;;;;;;;;;;;;;;15.44;71.43;101621.93;1860734;76;20114;-67
2021/10/23 05:25:09;;;;;;;;;;;;;;;16.19;70.62;101619.35;1860995;77;20113;-67
2021/10/23 05:27:37;;;;;;;;;;;;;;;16.92;70.04;101630.80;1859907;77;20205;-66
2021/10/23 05:30:05;;;;;;;;;;;;;;;17.60;70.18;101630.37;1857795;77;20151;-62
2021/10/23 05:32:33;;;;;;;;;;;;;;;18.16;68.88;101622.85;1860970;76;20168;-62
2021/10/23 05:35:01;;;;;;;;;;;;;;;18.56;67.35;101622.74;1860121;77;20106;-65
2021/10/23 05:37:29;;;;;;;;;;;;;;;19.04;67.30;101622.61;1860131;77;20150;-63
2021/10/23 05:39:57;;;;;;;;;;;;;;;19.59;66.87;101629.87;1860945;76;20147;-60
2021/10/23 05:42:25;;;;;;;;;;;;;;;20.19;66.72;101625.19;1860902;77;20153;-61
2021/10/23 05:44:52;;;;;;;;;;;;;;;20.34;60.69;101630.01;1860864;77;20116;-61
2021/10/23 05:47:20;;;;;;;;;;;;;;;20.60;59.76;101634.95;1860923;76;20121;-61
2021/10/23 05:49:48;;;;;;;;;;;;;;;20.91;61.78;101637.77;1860841;77;20117;-61
2021/10/23 05:52:16;;;;;;;;;;;;;;;21.17;60.39;101638.67;1860799;77;20120;-61
2021/10/23 05:54:43;;;;;;;;;;;;;;;21.25;58.49;101634.58;1860840;77;20151;-61
2021/10/23 05:57:12;;;;;;;;;;;;;;;21.34;55.49;101633.47;1860904;76;20148;-61
2021/10/23 05:59:47;;;;;;;;;;;;;;;21.33;55.17;101630.89;1860915;76;20104;-60
2021/10/23 06:02:22;;;;;;;;;;;;;;;21.35;55.12;101631.15;1859674;77;20124;-62
2021/10/23 06:04:41;;;;;;;;;;;;;;;21.51;53.74;101636.81;1859585;77;20113;-61
2021/10/23 06:07:09;;;;;;;;;;;;;;;21.75;52.66;101634.20;1860912;77;20120;-61
2021/10/23 06:09:36;;;;;;;;;;;;;;;21.89;52.54;101620.66;1860857;77;20116;-61
2021/10/23 06:12:04;;;;;;;;;;;;;;;21.99;51.10;101620.83;1860891;77;20172;-61
2021/10/23 06:14:32;;;;;;;;;;;;;;;22.03;50.85;101629.02;1860884;76;20115;-62
2021/10/23 06:17:00;;;;;;;;;;;;;;;22.01;49.98;101616.70;1860822;77;20116;-61
2021/10/23 06:19:28;;;;;;;;;;;;;;;21.88;49.73;101618.92;1860907;77;20147;-62
2021/10/23 06:21:55;;;;;;;;;;;;;;;22.28;50.10;101603.95;1860853;77;20125;-62
2021/10/23 06:24:23;;;;;;;;;;;;;;;22.47;48.47;101598.53;1860992;77;20117;-61
2021/10/23 06:26:51;;;;;;;;;;;;;;;22.33;47.88;101612.98;1860842;77;20120;-62
2021/10/23 06:29:19;;;;;;;;;;;;;;;22.44;48.13;101610.34;1860834;77;20112;-61
2021/10/23 06:31:47;;;;;;;;;;;;;;;22.73;47.77;101592.02;1860908;77;20124;-61
2021/10/23 06:34:15;;;;;;;;;;;;;;;22.96;46.77;101608.66;1860889;77;20120;-61
2021/10/23 06:36:43;;;;;;;;;;;;;;;23.30;46.90;101601.53;1860875;77;20144;-61
2021/10/23 06:39:10;;;;;;;;;;;;;;;23.41;45.38;101606.91;1864619;77;20101;-61
2021/10/23 06:41:38;;;;;;;;;;;;;;;23.46;45.06;101600.68;1870525;77;20121;-61
2021/10/23 06:44:08;;;;;;;;;;;;;;;23.34;44.27;101597.62;1870147;76;20143;-62
2021/10/23 06:46:36;;;;;;;;;;;;;;;23.42;44.73;101606.41;1870504;75;20152;-62
2021/10/23 06:49:05;;;;;;;;;;;;;;;23.63;44.52;101613.25;1870518;77;20169;-61
2021/10/23 06:51:32;;;;;;;;;;;;;;;23.66;43.46;101615.67;1870648;77;20121;-63
2021/10/23 06:54:01;;;;;;;;;;;;;;;23.58;43.31;101608.73;1870531;77;20113;-61
2021/10/23 06:56:30;;;;;;;;;;;;;;;23.71;43.56;101607.59;1870432;77;20105;-63
2021/10/23 06:58:57;;;;;;;;;;;;;;;23.95;43.38;101585.59;1870546;77;20184;-61
2021/10/23 07:01:25;;;;;;;;;;;;;;;23.78;41.86;101581.08;1870535;77;20148;-61
2021/10/23 07:03:54;;;;;;;;;;;;;;;23.92;42.40;101593.41;1870500;76;20121;-61
2021/10/23 07:06:23;;;;;;;;;;;;;;;24.34;42.13;101599.40;1870527;77;20125;-61
2021/10/23 07:08:50;;;;;;;;;;;;;;;24.56;41.30;101600.66;1870517;77;20122;-61
2021/10/23 07:11:18;;;;;;;;;;;;;;;24.64;40.80;101598.19;1870453;77;20192;-62
2021/10/23 07:13:46;;;;;;;;;;;;;;;24.71;40.44;101585.54;1870520;77;20149;-61
2021/10/23 07:16:14;;;;;;;;;;;;;;;24.47;40.75;101586.61;1870522;77;20113;-62
2021/10/23 07:18:42;;;;;;;;;;;;;;;24.36;39.55;101597.42;1870474;77;20121;-62
2021/10/23 07:21:10;;;;;;;;;;;;;;;24.39;40.15;101584.56;1870499;77;20105;-62
2021/10/23 07:23:38;;;;;;;;;;;;;;;24.28;40.60;101572.02;1870440;77;20120;-62
2021/10/23 07:26:06;;;;;;;;;;;;;;;24.29;40.88;101595.77;1870508;77;20140;-61
2021/10/23 07:28:33;;;;;;;;;;;;;;;24.39;40.40;101601.22;1870475;77;20121;-62
2021/10/23 07:31:01;;;;;;;;;;;;;;;24.33;40.33;101594.98;1870525;77;20121;-61
2021/10/23 07:33:29;;;;;;;;;;;;;;;24.62;40.23;101595.25;1870483;77;20118;-61
2021/10/23 07:35:57;;;;;;;;;;;;;;;24.91;39.64;101595.44;1870496;77;20112;-61
2021/10/23 07:38:25;;;;;;;;;;;;;;;24.84;39.38;101584.83;1870384;77;20161;-61
2021/10/23 07:40:52;;;;;;;;;;;;;;;25.07;39.30;101541.59;1852608;77;20113;-61
2021/10/23 07:43:20;;;;;;;;;;;;;;;24.76;38.99;101584.16;1849234;78;20124;-62
2021/10/23 07:45:49;;;;;;;;;;;;;;;24.64;39.11;101554.23;1849218;78;20109;-61
2021/10/23 07:48:17;;;;;;;;;;;;;;;24.57;39.33;101543.66;1849236;78;20105;-62
2021/10/23 07:50:46;;;;;;;;;;;;;;;24.79;38.92;101561.52;1849338;76;20195;-62
2021/10/23 07:53:14;;;;;;;;;;;;;;;24.87;38.53;101548.22;1849233;78;20151;-61
2021/10/23 07:55:42;;;;;;;;;;;;;;;24.65;38.60;101583.72;1849263;78;20108;-62
2021/10/23 07:58:10;;;;;;;;;;;;;;;24.58;38.12;101563.69;1849230;78;20116;-61
2021/10/23 08:00:38;;;;;;;;;;;;;;;24.70;38.51;101579.30;1849257;78;20108;-62
2021/10/23 08:03:06;;;;;;;;;;;;;;;24.99;38.05;101572.75;1849203;78;20117;-62
2021/10/23 08:05:36;;;;;;;;;;;;;;;25.01;37.76;101552.38;1875837;74;20132;-62
2021/10/23 08:08:05;;;;;;;;;;;;;;;24.95;37.79;101579.87;1883861;76;20174;-63
2021/10/23 08:10:33;;;;;;;;;;;;;;;25.14;37.53;101550.81;1883863;76;20131;-61
2021/10/23 08:13:02;;;;;;;;;;;;;;;25.18;37.01;101576.52;1883850;76;20144;-61
2021/10/23 08:15:31;;;;;;;;;;;;;;;25.29;37.49;101576.97;1883814;76;20469;-61
2021/10/23 08:17:59;;;;;;;;;;;;;;;25.39;37.33;101580.03;1883871;76;20215;-61
2021/10/23 08:20:27;;;;;;;;;;;;;;;25.30;37.68;101575.45;1883840;76;20140;-61
2021/10/23 08:22:55;;;;;;;;;;;;;;;25.49;37.25;101583.25;1883852;76;20143;-61
2021/10/23 08:25:23;;;;;;;;;;;;;;;25.61;36.76;101591.60;1883809;76;20144;-62
2021/10/23 08:27:51;;;;;;;;;;;;;;;25.52;36.27;101566.81;1883834;76;20187;-62
2021/10/23 08:30:19;;;;;;;;;;;;;;;25.35;37.11;101559.73;1883751;76;20174;-62
2021/10/23 08:32:47;;;;;;;;;;;;;;;25.19;36.79;101560.70;1883868;76;20144;-62
2021/10/23 08:35:15;;;;;;;;;;;;;;;24.94;37.37;101583.06;1883841;76;20174;-62
2021/10/23 08:37:43;;;;;;;;;;;;;;;24.85;37.55;101578.48;1883829;76;20167;-61
2021/10/23 08:40:12;;;;;;;;;;;;;;;25.17;37.74;101577.50;1883794;76;20148;-61
2021/10/23 08:42:40;;;;;;;;;;;;;;;25.08;37.24;101572.91;1883859;76;20131;-61
2021/10/23 08:45:09;;;;;;;;;;;;;;;24.84;37.85;101581.67;1883763;76;20222;-61
2021/10/23 08:47:37;;;;;;;;;;;;;;;24.77;38.17;101566.15;1883861;76;20394;-61
2021/10/23 08:50:06;;;;;;;;;;;;;;;25.14;37.97;101542.73;1884029;76;20174;-62
2021/10/23 08:52:34;;;;;;;;;;;;;;;25.16;37.80;101578.00;1883858;76;20151;-61
2021/10/23 08:55:02;;;;;;;;;;;;;;;25.05;38.27;101569.50;1883998;76;20148;-61
2021/10/23 08:57:30;;;;;;;;;;;;;;;25.11;38.38;101576.70;1883795;76;20178;-61
2021/10/23 08:59:58;;;;;;;;;;;;;;;25.31;38.35;101583.91;1884057;76;20132;-61
2021/10/23 09:02:26;;;;;;;;;;;;;;;25.51;38.08;101567.78;1883938;76;20143;-61
2021/10/23 09:04:55;;;;;;;;;;;;;;;25.34;38.09;101582.77;1909134;73;20146;-61
2021/10/23 09:07:23;;;;;;;;;;;;;;;25.18;38.80;101559.01;1948467;74;20154;-61
2021/10/23 09:10:02;;;;;;;;;;;;;;;25.08;39.05;101578.30;1948428;74;20184;-63
2021/10/23 09:12:31;;;;;;;;;;;;;;;25.48;38.90;101562.69;1948439;74;20116;-61
2021/10/23 09:15:09;;;;;;;;;;;;;;;25.42;38.55;101539.83;1948490;74;20113;-61
2021/10/23 09:17:40;;;;;;;;;;;;;;;25.33;38.15;101563.56;1948496;74;20109;-61
2021/10/23 09:20:09;;;;;;;;;;;;;;;25.17;38.61;101565.37;1948432;74;20100;-60
2021/10/23 09:22:38;;;;;;;;;;;;;;;25.12;38.89;101558.18;1947285;74;20200;-61
2021/10/23 09:25:23;;;;;;;;;;;;;;;24.94;39.00;101582.22;1948438;74;20152;-61
2021/10/23 09:28:05;;;;;;;;;;;;;;;24.66;39.15;101558.52;1948438;74;20187;-61
2021/10/23 09:30:34;;;;;;;;;;;;;;;24.61;39.46;101576.91;1948484;74;20387;-61
2021/10/23 09:33:09;;;;;;;;;;;;;;;24.71;39.56;101569.37;1948375;74;20230;-61
2021/10/23 09:35:40;;;;;;;;;;;;;;;24.48;39.50;101562.25;1948497;74;20437;-61
2021/10/23 09:38:09;;;;;;;;;;;;;;;24.58;39.25;101558.81;1948567;74;20138;-61
2021/10/23 09:40:38;;;;;;;;;;;;;;;24.54;39.42;101564.95;1948484;74;20116;-61
2021/10/23 09:43:14;;;;;;;;;;;;;;;24.63;39.46;101577.62;1948470;74;20112;-61
2021/10/23 09:46:01;;;;;;;;;;;;;;;24.65;39.66;101560.84;1948556;74;20113;-62
2021/10/23 09:48:30;;;;;;;;;;;;;;;24.74;39.61;101564.59;1948466;74;20113;-61
2021/10/23 09:51:15;;;;;;;;;;;;;;;24.79;39.34;101566.90;1948457;74;20109;-62
2021/10/23 09:53:43;;;;;;;;;;;;;;;25.04;38.86;101561.05;1947754;74;20374;-63
2021/10/23 09:56:12;;;;;;;;;;;;;;;24.97;38.46;101518.16;1943430;74;20459;-65
2021/10/23 09:58:41;;;;;;;;;;;;;;;24.96;38.51;101547.92;1928983;74;20464;-63
2021/10/23 10:01:10;;;;;;;;;;;;;;;24.85;38.70;101568.55;1929593;74;20116;-64
2021/10/23 10:03:38;;;;;;;;;;;;;;;24.69;39.23;101563.28;1946575;72;20145;-64
2021/10/23 10:06:06;;;;;;;;;;;;;;;24.96;39.26;101561.39;1939963;72;20119;-63
2021/10/23 10:08:34;;;;;;;;;;;;;;;25.05;38.60;101559.23;1951812;73;20098;-61
2021/10/23 10:11:02;;;;;;;;;;;;;;;25.20;38.59;101574.04;1957719;73;20117;-61
2021/10/23 10:13:30;;;;;;;;;;;;;;;25.08;38.97;101562.14;1906627;74;20117;-65
2021/10/23 10:15:59;;;;;;;;;;;;;;;24.59;39.87;101570.80;1906771;74;20104;-62
2021/10/23 10:18:26;;;;;;;;;;;;;;;24.05;40.95;101556.47;1932646;73;20115;-63
2021/10/23 10:20:56;;;;;;;;;;;;;;;23.93;41.58;101548.06;1961889;73;20265;-64
2021/10/23 10:23:34;;;;;;;;;;;;;;;23.94;41.77;101542.19;1906529;75;20445;-58
2021/10/23 10:26:20;;;;;;;;;;;;;;;23.71;41.98;101521.56;1911334;74;20139;-58
2021/10/23 10:29:08;;;;;;;;;;;;;;;23.67;42.06;101540.78;1933775;74;20113;-58
2021/10/23 10:31:56;;;;;;;;;;;;;;;23.67;41.78;101543.47;1922124;74;20155;-58
2021/10/23 10:34:39;;;;;;;;;;;;;;;23.57;42.29;101555.94;1906562;74;20112;-59
2021/10/23 10:42:52;;;;;;;;;;;;;;;24.16;41.09;101556.92;1909955;74;20117;-67
2021/10/23 10:45:27;;;;;;;;;;;;;;;24.00;41.19;101555.14;1906588;75;20147;-67
2021/10/23 10:48:13;;;;;;;;;;;;;;;23.53;41.93;101560.70;1932757;74;20148;-63
2021/10/23 10:50:45;;;;;;;;;;;;;;;23.58;42.12;101548.25;1932531;74;20164;-63
2021/10/23 10:53:17;;;;;;;;;;;;;;;23.67;42.32;101548.84;1906633;75;20121;-66
2021/10/23 10:55:46;;;;;;;;;;;;;;;23.89;41.64;101546.12;1908436;74;20359;-63
2021/10/23 10:58:14;;;;;;;;;;;;;;;23.92;41.48;101552.22;1933417;74;20383;-64
2021/10/23 11:00:49;;;;;;;;;;;;;;;23.44;41.99;101552.92;1932206;74;20144;-65
2021/10/23 11:03:37;;;;;;;;;;;;;;;23.39;42.32;101526.90;1906649;75;20148;-64
2021/10/23 11:06:23;;;;;;;;;;;;;;;23.11;42.74;101542.55;1918186;74;20406;-62
2021/10/23 11:08:52;;;;;;;;;;;;;;;23.24;42.95;101548.27;1946612;74;20564;-62
2021/10/23 11:11:20;;;;;;;;;;;;;;;23.54;42.50;101545.45;1932865;74;20124;-63
2021/10/23 11:13:48;;;;;;;;;;;;;;;23.25;42.29;101508.34;1919396;75;20143;-67
2021/10/23 11:16:20;;;;;;;;;;;;;;;22.78;43.30;101542.47;1927167;73;20410;-65
2021/10/23 11:18:49;;;;;;;;;;;;;;;22.42;44.25;101551.06;1940976;74;20100;-61
2021/10/23 11:21:17;;;;;;;;;;;;;;;22.56;44.31;101538.80;1937862;74;20132;-62
2021/10/23 11:23:46;;;;;;;;;;;;;;;22.65;44.18;101532.71;1919338;75;20112;-62
2021/10/23 11:26:15;;;;;;;;;;;;;;;22.56;44.81;101549.53;1926791;74;20143;-62
2021/10/23 11:28:43;;;;;;;;;;;;;;;22.57;44.96;101547.20;1946785;74;20190;-62
2021/10/23 11:31:24;;;;;;;;;;;;;;;22.39;44.67;101549.95;1939795;74;20144;-62
2021/10/23 11:33:51;;;;;;;;;;;;;;;22.06;45.52;101540.77;1919179;75;20143;-61
2021/10/23 11:36:20;;;;;;;;;;;;;;;21.70;46.59;101546.06;1927822;74;20116;-61
2021/10/23 11:38:48;;;;;;;;;;;;;;;21.55;46.93;101540.00;1946740;74;20120;-62
2021/10/23 11:41:18;;;;;;;;;;;;;;;21.42;47.38;101543.17;1938933;74;20112;-62
2021/10/23 11:43:45;;;;;;;;;;;;;;;21.13;48.30;101532.72;1919252;74;20116;-62
2021/10/23 11:46:13;;;;;;;;;;;;;;;20.77;49.23;101546.89;1926784;73;20105;-62
2021/10/23 11:48:42;;;;;;;;;;;;;;;20.24;50.95;101538.84;1946758;73;20195;-62
2021/10/23 11:51:10;;;;;;;;;;;;;;;19.82;52.47;101514.86;1946777;74;20117;-62
2021/10/23 11:53:38;;;;;;;;;;;;;;;19.51;53.16;101526.64;1946802;74;20113;-62
2021/10/23 11:56:07;;;;;;;;;;;;;;;19.29;53.90;101553.41;1946709;74;20116;-62
2021/10/23 11:58:35;;;;;;;;;;;;;;;19.16;54.68;101515.05;1946795;74;20112;-62
2021/10/23 12:01:05;;;;;;;;;;;;;;;19.14;54.57;101526.31;1942659;73;20129;-64
2021/10/23 12:03:42;;;;;;;;;;;;;;;19.03;54.84;101544.81;1860065;75;20162;-64
2021/10/23 12:06:16;;;;;;;;;;;;;;;18.81;54.88;101552.83;1925293;74;20107;-64
2021/10/23 12:08:44;;;;;;;;;;;;;;;18.65;55.12;101545.33;1912893;75;20110;-65
2021/10/23 12:11:16;;;;;;;;;;;;;;;18.59;55.43;101550.56;1928477;74;20189;-64
2021/10/23 12:13:45;;;;;;;;;;;;;;;18.56;55.72;101547.22;1928933;74;20147;-65
2021/10/23 12:16:13;;;;;;;;;;;;;;;18.57;55.68;101546.25;1929707;74;20167;-63
2021/10/23 12:18:41;;;;;;;;;;;;;;;18.57;55.84;101539.09;1932097;74;20100;-63
2021/10/23 12:21:11;;;;;;;;;;;;;;;18.61;56.18;101529.98;1935583;74;20117;-64
2021/10/23 12:23:52;;;;;;;;;;;;;;;18.66;55.98;101547.88;1943549;74;20113;-64
2021/10/23 12:26:33;;;;;;;;;;;;;;;18.68;55.91;101531.33;1942130;74;20116;-63
2021/10/23 12:29:05;;;;;;;;;;;;;;;18.73;56.14;101537.70;1932251;74;20143;-63
2021/10/23 12:31:51;;;;;;;;;;;;;;;18.86;55.73;101544.03;1932029;74;20112;-62
2021/10/23 12:34:19;;;;;;;;;;;;;;;18.97;55.35;101555.87;1932188;74;20112;-62
2021/10/23 12:36:50;;;;;;;;;;;;;;;18.94;55.34;101545.37;1932239;74;20103;-61
2021/10/23 12:39:22;;;;;;;;;;;;;;;18.83;55.78;101558.92;1932346;74;20112;-62
2021/10/23 12:41:50;;;;;;;;;;;;;;;18.84;55.90;101549.09;1932242;74;20398;-62
2021/10/23 12:44:19;;;;;;;;;;;;;;;18.82;55.94;101546.52;1932201;74;20100;-61
2021/10/23 12:46:47;;;;;;;;;;;;;;;18.86;55.81;101554.70;1932105;74;20141;-61
2021/10/23 12:49:15;;;;;;;;;;;;;;;18.86;55.47;101554.70;1932201;74;20112;-61
2021/10/23 12:51:43;;;;;;;;;;;;;;;18.84;55.40;101554.43;1932236;74;20155;-61
2021/10/23 12:54:14;;;;;;;;;;;;;;;18.79;55.45;101557.33;1932221;74;20104;-61